sensor_id;sensor_type;location;lat;lon;timestamp;pressure;altitude;pressure_sealevel;temperature;humidity
64340;BME280;63709;53.258;-8.814;2023-07-24T00:00:49;101023.84;;;18.77;100.00
64340;BME280;63709;53.258;-8.814;2023-07-24T00:03:21;101021.13;;;18.77;100.00
64340;BME280;63709;53.258;-8.814;2023-07-24T00:05:47;101025.31;;;18.71;100.00
64340;BME280;63709;53.258;-8.814;2023-07-24T00:08:14;101030.19;;;18.68;100.00
64340;BME280;63709;53.258;-8.814;2023-07-24T00:10:39;101027.28;;;18.61;100.00
64340;BME280;63709;53.258;-8.814;2023-07-24T00:13:06;101027.78;;;18.65;100.00
64340;BME280;63709;53.258;-8.814;2023-07-24T00:15:32;101031.84;;;18.60;100.00
64340;BME280;63709;53.258;-8.814;2023-07-24T00:17:58;101026.81;;;18.66;100.00
64340;BME280;63709;53.258;-8.814;2023-07-24T00:20:25;101030.66;;;18.55;100.00
64340;BME280;63709;53.258;-8.814;2023-07-24T00:22:53;101031.81;;;18.52;100.00
64340;BME280;63709;53.258;-8.814;2023-07-24T00:25:24;101040.94;;;18.51;100.00
64340;BME280;63709;53.258;-8.814;2023-07-24T00:27:51;101041.88;;;18.42;100.00
64340;BME280;63709;53.258;-8.814;2023-07-24T00:30:17;101039.50;;;18.39;100.00
64340;BME280;63709;53.258;-8.814;2023-07-24T00:32:43;101038.34;;;18.42;100.00
64340;BME280;63709;53.258;-8.814;2023-07-24T00:35:08;101037.31;;;18.43;100.00
64340;BME280;63709;53.258;-8.814;2023-07-24T00:37:34;101038.19;;;18.43;100.00
64340;BME280;63709;53.258;-8.814;2023-07-24T00:40:02;101049.44;;;18.30;100.00
64340;BME280;63709;53.258;-8.814;2023-07-24T00:42:27;101043.19;;;18.30;100.00
64340;BME280;63709;53.258;-8.814;2023-07-24T00:44:54;101049.38;;;18.22;100.00
64340;BME280;63709;53.258;-8.814;2023-07-24T00:47:21;101044.16;;;18.21;100.00
64340;BME280;63709;53.258;-8.814;2023-07-24T00:49:48;101044.16;;;18.21;100.00
64340;BME280;63709;53.258;-8.814;2023-07-24T00:52:15;101050.00;;;18.16;100.00
64340;BME280;63709;53.258;-8.814;2023-07-24T00:54:41;101049.88;;;18.18;100.00
64340;BME280;63709;53.258;-8.814;2023-07-24T00:57:10;101049.75;;;18.27;100.00
64340;BME280;63709;53.258;-8.814;2023-07-24T00:59:36;101051.25;;;18.22;100.00
64340;BME280;63709;53.258;-8.814;2023-07-24T01:02:03;101049.22;;;18.24;100.00
64340;BME280;63709;53.258;-8.814;2023-07-24T01:04:28;101050.72;;;18.18;100.00
64340;BME280;63709;53.258;-8.814;2023-07-24T01:06:54;101061.47;;;18.10;100.00
64340;BME280;63709;53.258;-8.814;2023-07-24T01:09:20;101055.41;;;18.16;100.00
64340;BME280;63709;53.258;-8.814;2023-07-24T01:11:50;101059.91;;;18.07;100.00
64340;BME280;63709;53.258;-8.814;2023-07-24T01:17:01;101061.47;;;18.10;100.00
64340;BME280;63709;53.258;-8.814;2023-07-24T01:19:36;101055.44;;;17.98;100.00
64340;BME280;63709;53.258;-8.814;2023-07-24T01:22:18;101063.19;;;17.93;100.00
64340;BME280;63709;53.258;-8.814;2023-07-24T01:25:00;101062.16;;;17.94;100.00
64340;BME280;63709;53.258;-8.814;2023-07-24T01:27:26;101066.06;;;17.92;100.00
64340;BME280;63709;53.258;-8.814;2023-07-24T01:29:52;101072.00;;;17.95;100.00
64340;BME280;63709;53.258;-8.814;2023-07-24T01:32:18;101077.00;;;17.90;100.00
64340;BME280;63709;53.258;-8.814;2023-07-24T01:34:44;101078.00;;;17.89;100.00
64340;BME280;63709;53.258;-8.814;2023-07-24T01:37:11;101073.56;;;17.80;100.00
64340;BME280;63709;53.258;-8.814;2023-07-24T01:39:37;101069.19;;;17.87;100.00
64340;BME280;63709;53.258;-8.814;2023-07-24T01:42:04;101074.72;;;17.77;100.00
64340;BME280;63709;53.258;-8.814;2023-07-24T01:44:30;101077.53;;;17.76;100.00
64340;BME280;63709;53.258;-8.814;2023-07-24T01:46:57;101078.00;;;17.71;100.00
64340;BME280;63709;53.258;-8.814;2023-07-24T01:49:22;101080.69;;;17.71;100.00
64340;BME280;63709;53.258;-8.814;2023-07-24T01:51:47;101076.97;;;17.72;100.00
64340;BME280;63709;53.258;-8.814;2023-07-24T01:54:14;101076.13;;;17.72;100.00
64340;BME280;63709;53.258;-8.814;2023-07-24T01:56:39;101075.28;;;17.71;100.00
64340;BME280;63709;53.258;-8.814;2023-07-24T01:59:06;101076.84;;;17.74;100.00
64340;BME280;63709;53.258;-8.814;2023-07-24T02:01:33;101074.44;;;17.71;100.00
64340;BME280;63709;53.258;-8.814;2023-07-24T02:03:58;101082.00;;;17.67;100.00
64340;BME280;63709;53.258;-8.814;2023-07-24T02:06:23;101080.16;;;17.67;100.00
64340;BME280;63709;53.258;-8.814;2023-07-24T02:08:50;101072.75;;;17.70;100.00
64340;BME280;63709;53.258;-8.814;2023-07-24T02:11:17;101082.19;;;17.65;100.00
64340;BME280;63709;53.258;-8.814;2023-07-24T02:13:46;101080.78;;;17.61;100.00
64340;BME280;63709;53.258;-8.814;2023-07-24T02:16:12;101085.25;;;17.53;100.00
64340;BME280;63709;53.258;-8.814;2023-07-24T02:18:43;101080.69;;;17.53;100.00
64340;BME280;63709;53.258;-8.814;2023-07-24T02:21:11;101083.56;;;17.52;100.00
64340;BME280;63709;53.258;-8.814;2023-07-24T02:23:36;101085.72;;;17.48;100.00
64340;BME280;63709;53.258;-8.814;2023-07-24T02:26:03;101084.03;;;17.47;100.00
64340;BME280;63709;53.258;-8.814;2023-07-24T02:28:29;101084.31;;;17.44;100.00
64340;BME280;63709;53.258;-8.814;2023-07-24T02:30:54;101086.25;;;17.52;100.00
64340;BME280;63709;53.258;-8.814;2023-07-24T02:33:25;101092.41;;;17.44;100.00
64340;BME280;63709;53.258;-8.814;2023-07-24T02:35:51;101096.25;;;17.41;100.00
64340;BME280;63709;53.258;-8.814;2023-07-24T02:38:17;101094.28;;;17.44;100.00
64340;BME280;63709;53.258;-8.814;2023-07-24T02:40:44;101099.44;;;17.37;100.00
64340;BME280;63709;53.258;-8.814;2023-07-24T02:43:12;101109.28;;;17.46;100.00
64340;BME280;63709;53.258;-8.814;2023-07-24T02:45:37;101099.72;;;17.34;100.00
64340;BME280;63709;53.258;-8.814;2023-07-24T02:48:03;101099.13;;;17.40;100.00
64340;BME280;63709;53.258;-8.814;2023-07-24T02:50:32;101104.28;;;17.33;100.00
64340;BME280;63709;53.258;-8.814;2023-07-24T02:53:00;101101.75;;;17.32;100.00
64340;BME280;63709;53.258;-8.814;2023-07-24T02:55:26;101106.13;;;17.33;100.00
64340;BME280;63709;53.258;-8.814;2023-07-24T02:57:51;101108.97;;;17.31;100.00
64340;BME280;63709;53.258;-8.814;2023-07-24T03:00:17;101105.41;;;17.31;100.00
64340;BME280;63709;53.258;-8.814;2023-07-24T03:02:43;101112.84;;;17.29;100.00
64340;BME280;63709;53.258;-8.814;2023-07-24T03:05:09;101117.28;;;17.20;100.00
64340;BME280;63709;53.258;-8.814;2023-07-24T03:07:35;101122.53;;;17.22;100.00
64340;BME280;63709;53.258;-8.814;2023-07-24T03:10:02;101123.38;;;17.22;100.00
64340;BME280;63709;53.258;-8.814;2023-07-24T03:12:28;101129.81;;;17.11;100.00
64340;BME280;63709;53.258;-8.814;2023-07-24T03:14:53;101133.09;;;17.05;100.00
64340;BME280;63709;53.258;-8.814;2023-07-24T03:17:19;101131.66;;;17.11;100.00
64340;BME280;63709;53.258;-8.814;2023-07-24T03:19:47;101124.03;;;17.06;100.00
64340;BME280;63709;53.258;-8.814;2023-07-24T03:22:15;101131.72;;;17.01;100.00
64340;BME280;63709;53.258;-8.814;2023-07-24T03:24:40;101127.03;;;17.03;100.00
64340;BME280;63709;53.258;-8.814;2023-07-24T03:27:06;101132.31;;;16.95;100.00
64340;BME280;63709;53.258;-8.814;2023-07-24T03:29:31;101134.31;;;16.93;100.00
64340;BME280;63709;53.258;-8.814;2023-07-24T03:31:59;101137.28;;;16.90;100.00
64340;BME280;63709;53.258;-8.814;2023-07-24T03:34:25;101143.59;;;16.81;100.00
64340;BME280;63709;53.258;-8.814;2023-07-24T03:36:51;101140.91;;;16.81;100.00
64340;BME280;63709;53.258;-8.814;2023-07-24T03:39:16;101147.41;;;16.68;100.00
64340;BME280;63709;53.258;-8.814;2023-07-24T03:41:42;101151.09;;;16.67;100.00
64340;BME280;63709;53.258;-8.814;2023-07-24T03:44:12;101158.63;;;16.64;100.00
64340;BME280;63709;53.258;-8.814;2023-07-24T03:46:38;101152.56;;;16.52;100.00
64340;BME280;63709;53.258;-8.814;2023-07-24T03:49:03;101156.41;;;16.50;100.00
64340;BME280;63709;53.258;-8.814;2023-07-24T03:51:32;101158.25;;;16.49;100.00
64340;BME280;63709;53.258;-8.814;2023-07-24T03:54:01;101154.59;;;16.50;100.00
64340;BME280;63709;53.258;-8.814;2023-07-24T03:56:26;101153.31;;;16.44;100.00
64340;BME280;63709;53.258;-8.814;2023-07-24T03:58:52;101155.56;;;16.49;100.00
64340;BME280;63709;53.258;-8.814;2023-07-24T04:01:17;101156.56;;;16.38;100.00
64340;BME280;63709;53.258;-8.814;2023-07-24T04:03:47;101154.19;;;16.35;100.00
64340;BME280;63709;53.258;-8.814;2023-07-24T04:06:15;101160.25;;;16.28;100.00
64340;BME280;63709;53.258;-8.814;2023-07-24T04:08:42;101160.97;;;16.30;100.00
64340;BME280;63709;53.258;-8.814;2023-07-24T04:11:07;101158.00;;;16.33;100.00
64340;BME280;63709;53.258;-8.814;2023-07-24T04:13:34;101164.69;;;16.19;100.00
64340;BME280;63709;53.258;-8.814;2023-07-24T04:15:59;101174.03;;;16.15;100.00
64340;BME280;63709;53.258;-8.814;2023-07-24T04:18:24;101170.63;;;16.13;100.00
64340;BME280;63709;53.258;-8.814;2023-07-24T04:20:51;101177.28;;;16.09;100.00
64340;BME280;63709;53.258;-8.814;2023-07-24T04:23:19;101174.44;;;16.20;100.00
64340;BME280;63709;53.258;-8.814;2023-07-24T04:25:44;101173.31;;;16.13;100.00
64340;BME280;63709;53.258;-8.814;2023-07-24T04:28:11;101179.28;;;16.07;100.00
64340;BME280;63709;53.258;-8.814;2023-07-24T04:30:36;101176.00;;;16.13;100.00
64340;BME280;63709;53.258;-8.814;2023-07-24T04:33:01;101175.91;;;15.95;100.00
64340;BME280;63709;53.258;-8.814;2023-07-24T04:35:27;101185.38;;;15.89;100.00
64340;BME280;63709;53.258;-8.814;2023-07-24T04:37:52;101176.31;;;15.81;100.00
64340;BME280;63709;53.258;-8.814;2023-07-24T04:40:20;101180.66;;;15.72;100.00
64340;BME280;63709;53.258;-8.814;2023-07-24T04:42:48;101185.66;;;15.77;100.00
64340;BME280;63709;53.258;-8.814;2023-07-24T04:45:14;101191.88;;;15.77;100.00
64340;BME280;63709;53.258;-8.814;2023-07-24T04:47:39;101189.50;;;15.84;100.00
64340;BME280;63709;53.258;-8.814;2023-07-24T04:50:05;101195.84;;;15.83;100.00
64340;BME280;63709;53.258;-8.814;2023-07-24T04:52:33;101192.88;;;15.86;100.00
64340;BME280;63709;53.258;-8.814;2023-07-24T04:54:59;101198.13;;;15.87;100.00
64340;BME280;63709;53.258;-8.814;2023-07-24T04:57:26;101194.31;;;16.00;100.00
64340;BME280;63709;53.258;-8.814;2023-07-24T04:59:52;101202.81;;;15.95;100.00
64340;BME280;63709;53.258;-8.814;2023-07-24T05:02:18;101205.78;;;15.92;100.00
64340;BME280;63709;53.258;-8.814;2023-07-24T05:04:43;101203.66;;;15.86;100.00
64340;BME280;63709;53.258;-8.814;2023-07-24T05:07:09;101201.69;;;15.88;100.00
64340;BME280;63709;53.258;-8.814;2023-07-24T05:09:34;101208.75;;;15.89;100.00
64340;BME280;63709;53.258;-8.814;2023-07-24T05:11:59;101213.03;;;15.91;100.00
64340;BME280;63709;53.258;-8.814;2023-07-24T05:14:25;101213.28;;;15.88;100.00
64340;BME280;63709;53.258;-8.814;2023-07-24T05:16:50;101214.28;;;15.87;100.00
64340;BME280;63709;53.258;-8.814;2023-07-24T05:19:16;101215.13;;;15.88;100.00
64340;BME280;63709;53.258;-8.814;2023-07-24T05:21:42;101220.38;;;15.89;100.00
64340;BME280;63709;53.258;-8.814;2023-07-24T05:24:08;101229.16;;;15.91;100.00
64340;BME280;63709;53.258;-8.814;2023-07-24T05:26:33;101223.63;;;15.93;100.00
64340;BME280;63709;53.258;-8.814;2023-07-24T05:29:00;101224.22;;;15.96;100.00
64340;BME280;63709;53.258;-8.814;2023-07-24T05:31:25;101228.03;;;15.94;100.00
64340;BME280;63709;53.258;-8.814;2023-07-24T05:33:51;101232.00;;;16.00;100.00
64340;BME280;63709;53.258;-8.814;2023-07-24T05:36:18;101231.31;;;16.17;100.00
64340;BME280;63709;53.258;-8.814;2023-07-24T05:38:43;101239.81;;;16.03;100.00
64340;BME280;63709;53.258;-8.814;2023-07-24T05:41:09;101232.13;;;15.98;100.00
64340;BME280;63709;53.258;-8.814;2023-07-24T05:43:34;101232.44;;;15.95;100.00
64340;BME280;63709;53.258;-8.814;2023-07-24T05:46:02;101231.72;;;15.93;100.00
64340;BME280;63709;53.258;-8.814;2023-07-24T05:48:27;101240.34;;;15.96;100.00
64340;BME280;63709;53.258;-8.814;2023-07-24T05:50:53;101235.28;;;16.03;100.00
64340;BME280;63709;53.258;-8.814;2023-07-24T05:53:19;101241.34;;;16.05;100.00
64340;BME280;63709;53.258;-8.814;2023-07-24T05:55:49;101245.50;;;16.09;100.00
64340;BME280;63709;53.258;-8.814;2023-07-24T05:58:20;101238.97;;;16.12;100.00
64340;BME280;63709;53.258;-8.814;2023-07-24T06:00:46;101245.63;;;16.17;100.00
64340;BME280;63709;53.258;-8.814;2023-07-24T06:03:14;101242.66;;;16.30;100.00
64340;BME280;63709;53.258;-8.814;2023-07-24T06:05:40;101247.91;;;16.32;100.00
64340;BME280;63709;53.258;-8.814;2023-07-24T06:08:06;101251.56;;;16.31;100.00
64340;BME280;63709;53.258;-8.814;2023-07-24T06:10:35;101254.00;;;16.34;100.00
64340;BME280;63709;53.258;-8.814;2023-07-24T06:13:03;101253.56;;;16.38;100.00
64340;BME280;63709;53.258;-8.814;2023-07-24T06:15:29;101252.84;;;16.46;100.00
64340;BME280;63709;53.258;-8.814;2023-07-24T06:17:56;101258.22;;;16.46;100.00
64340;BME280;63709;53.258;-8.814;2023-07-24T06:20:22;101256.97;;;16.50;100.00
64340;BME280;63709;53.258;-8.814;2023-07-24T06:22:47;101257.53;;;16.63;100.00
64340;BME280;63709;53.258;-8.814;2023-07-24T06:25:13;101256.22;;;16.67;100.00
64340;BME280;63709;53.258;-8.814;2023-07-24T06:27:38;101258.97;;;16.77;100.00
64340;BME280;63709;53.258;-8.814;2023-07-24T06:30:05;101261.78;;;16.85;100.00
64340;BME280;63709;53.258;-8.814;2023-07-24T06:32:32;101269.13;;;16.93;100.00
64340;BME280;63709;53.258;-8.814;2023-07-24T06:34:58;101265.59;;;17.02;100.00
64340;BME280;63709;53.258;-8.814;2023-07-24T06:37:24;101275.38;;;17.03;100.00
64340;BME280;63709;53.258;-8.814;2023-07-24T06:39:57;101280.31;;;17.17;100.00
64340;BME280;63709;53.258;-8.814;2023-07-24T06:42:24;101282.25;;;17.25;100.00
64340;BME280;63709;53.258;-8.814;2023-07-24T06:44:50;101287.94;;;17.32;100.00
64340;BME280;63709;53.258;-8.814;2023-07-24T06:47:16;101292.13;;;17.44;100.00
64340;BME280;63709;53.258;-8.814;2023-07-24T06:49:42;101289.63;;;17.60;100.00
64340;BME280;63709;53.258;-8.814;2023-07-24T06:52:09;101290.91;;;17.66;100.00
64340;BME280;63709;53.258;-8.814;2023-07-24T06:54:36;101289.59;;;17.80;100.00
64340;BME280;63709;53.258;-8.814;2023-07-24T06:57:09;101291.84;;;17.84;100.00
64340;BME280;63709;53.258;-8.814;2023-07-24T06:59:35;101298.72;;;17.97;100.00
64340;BME280;63709;53.258;-8.814;2023-07-24T07:02:01;101291.16;;;18.00;100.00
64340;BME280;63709;53.258;-8.814;2023-07-24T07:04:27;101289.25;;;18.10;100.00
64340;BME280;63709;53.258;-8.814;2023-07-24T07:06:55;101282.53;;;18.14;100.00
64340;BME280;63709;53.258;-8.814;2023-07-24T07:09:21;101285.91;;;18.17;100.00
64340;BME280;63709;53.258;-8.814;2023-07-24T07:11:47;101292.66;;;18.30;100.00
64340;BME280;63709;53.258;-8.814;2023-07-24T07:14:13;101298.31;;;18.37;100.00
64340;BME280;63709;53.258;-8.814;2023-07-24T07:16:39;101291.81;;;18.48;100.00
64340;BME280;63709;53.258;-8.814;2023-07-24T07:19:04;101295.44;;;18.56;100.00
64340;BME280;63709;53.258;-8.814;2023-07-24T07:21:31;101297.84;;;18.42;100.00
64340;BME280;63709;53.258;-8.814;2023-07-24T07:23:56;101290.44;;;18.61;100.00
64340;BME280;63709;53.258;-8.814;2023-07-24T07:26:29;101289.78;;;18.68;100.00
64340;BME280;63709;53.258;-8.814;2023-07-24T07:28:56;101284.03;;;18.80;100.00
64340;BME280;63709;53.258;-8.814;2023-07-24T07:31:21;101297.91;;;18.85;100.00
64340;BME280;63709;53.258;-8.814;2023-07-24T07:33:48;101300.78;;;18.84;100.00
64340;BME280;63709;53.258;-8.814;2023-07-24T07:36:14;101296.53;;;18.81;100.00
64340;BME280;63709;53.258;-8.814;2023-07-24T07:38:40;101303.31;;;18.85;100.00
64340;BME280;63709;53.258;-8.814;2023-07-24T07:41:05;101300.44;;;18.87;100.00
64340;BME280;63709;53.258;-8.814;2023-07-24T07:43:31;101303.88;;;18.71;100.00
64340;BME280;63709;53.258;-8.814;2023-07-24T07:45:57;101301.09;;;18.81;100.00
64340;BME280;63709;53.258;-8.814;2023-07-24T07:48:25;101299.84;;;18.75;100.00
64340;BME280;63709;53.258;-8.814;2023-07-24T07:50:52;101315.28;;;18.83;100.00
64340;BME280;63709;53.258;-8.814;2023-07-24T07:53:17;101310.19;;;18.62;100.00
64340;BME280;63709;53.258;-8.814;2023-07-24T07:55:42;101309.88;;;18.83;100.00
64340;BME280;63709;53.258;-8.814;2023-07-24T07:58:08;101313.78;;;18.80;100.00
64340;BME280;63709;53.258;-8.814;2023-07-24T08:00:34;101318.09;;;18.91;100.00
64340;BME280;63709;53.258;-8.814;2023-07-24T08:03:04;101310.69;;;19.01;100.00
64340;BME280;63709;53.258;-8.814;2023-07-24T08:05:31;101315.00;;;19.12;100.00
64340;BME280;63709;53.258;-8.814;2023-07-24T08:07:57;101314.09;;;19.03;100.00
64340;BME280;63709;53.258;-8.814;2023-07-24T08:10:26;101312.78;;;19.33;100.00
64340;BME280;63709;53.258;-8.814;2023-07-24T08:12:51;101310.16;;;19.24;100.00
64340;BME280;63709;53.258;-8.814;2023-07-24T08:15:17;101313.63;;;19.34;100.00
64340;BME280;63709;53.258;-8.814;2023-07-24T08:17:42;101314.44;;;19.61;100.00
64340;BME280;63709;53.258;-8.814;2023-07-24T08:20:09;101307.44;;;19.76;100.00
64340;BME280;63709;53.258;-8.814;2023-07-24T08:22:34;101313.03;;;19.82;100.00
64340;BME280;63709;53.258;-8.814;2023-07-24T08:27:28;101316.47;;;19.93;100.00
64340;BME280;63709;53.258;-8.814;2023-07-24T08:29:54;101318.13;;;19.77;100.00
64340;BME280;63709;53.258;-8.814;2023-07-24T08:32:21;101317.94;;;19.79;100.00
64340;BME280;63709;53.258;-8.814;2023-07-24T08:34:48;101312.31;;;19.72;100.00
64340;BME280;63709;53.258;-8.814;2023-07-24T08:37:14;101318.44;;;19.48;100.00
64340;BME280;63709;53.258;-8.814;2023-07-24T08:39:40;101325.72;;;19.48;100.00
64340;BME280;63709;53.258;-8.814;2023-07-24T08:42:12;101324.81;;;19.39;100.00
64340;BME280;63709;53.258;-8.814;2023-07-24T08:44:40;101321.06;;;19.32;100.00
64340;BME280;63709;53.258;-8.814;2023-07-24T08:47:09;101328.94;;;19.43;100.00
64340;BME280;63709;53.258;-8.814;2023-07-24T08:49:34;101327.59;;;19.47;100.00
64340;BME280;63709;53.258;-8.814;2023-07-24T08:52:04;101316.94;;;19.54;100.00
64340;BME280;63709;53.258;-8.814;2023-07-24T08:54:31;101318.00;;;19.61;100.00
64340;BME280;63709;53.258;-8.814;2023-07-24T08:56:58;101312.16;;;19.40;100.00
64340;BME280;63709;53.258;-8.814;2023-07-24T08:59:23;101314.94;;;19.56;100.00
64340;BME280;63709;53.258;-8.814;2023-07-24T09:01:49;101308.91;;;19.62;100.00
64340;BME280;63709;53.258;-8.814;2023-07-24T09:04:16;101310.31;;;19.74;100.00
64340;BME280;63709;53.258;-8.814;2023-07-24T09:06:42;101314.72;;;19.83;100.00
64340;BME280;63709;53.258;-8.814;2023-07-24T09:11:48;101310.00;;;19.77;100.00
64340;BME280;63709;53.258;-8.814;2023-07-24T09:14:27;101312.06;;;19.31;100.00
64340;BME280;63709;53.258;-8.814;2023-07-24T09:17:09;101301.78;;;19.09;100.00
64340;BME280;63709;53.258;-8.814;2023-07-24T09:19:43;101303.00;;;19.41;100.00
64340;BME280;63709;53.258;-8.814;2023-07-24T09:22:10;101305.97;;;19.55;100.00
64340;BME280;63709;53.258;-8.814;2023-07-24T09:24:48;101303.25;;;19.55;100.00
64340;BME280;63709;53.258;-8.814;2023-07-24T09:27:14;101298.44;;;19.67;100.00
64340;BME280;63709;53.258;-8.814;2023-07-24T09:29:41;101296.91;;;19.13;100.00
64340;BME280;63709;53.258;-8.814;2023-07-24T09:32:07;101299.59;;;19.39;100.00
64340;BME280;63709;53.258;-8.814;2023-07-24T09:34:35;101297.25;;;19.36;100.00
64340;BME280;63709;53.258;-8.814;2023-07-24T09:37:09;101298.44;;;19.41;100.00
64340;BME280;63709;53.258;-8.814;2023-07-24T09:39:36;101294.63;;;19.60;100.00
64340;BME280;63709;53.258;-8.814;2023-07-24T09:42:03;101295.94;;;19.82;100.00
64340;BME280;63709;53.258;-8.814;2023-07-24T09:44:30;101297.84;;;19.90;100.00
64340;BME280;63709;53.258;-8.814;2023-07-24T09:47:02;101296.88;;;19.99;100.00
64340;BME280;63709;53.258;-8.814;2023-07-24T09:49:28;101296.19;;;20.05;100.00
64340;BME280;63709;53.258;-8.814;2023-07-24T09:54:25;101302.72;;;19.78;100.00
64340;BME280;63709;53.258;-8.814;2023-07-24T09:56:56;101298.03;;;19.96;100.00
64340;BME280;63709;53.258;-8.814;2023-07-24T09:59:22;101301.25;;;19.92;100.00
64340;BME280;63709;53.258;-8.814;2023-07-24T10:01:54;101298.63;;;19.74;100.00
64340;BME280;63709;53.258;-8.814;2023-07-24T10:04:20;101301.28;;;20.08;100.00
64340;BME280;63709;53.258;-8.814;2023-07-24T10:06:49;101293.53;;;20.29;100.00
64340;BME280;63709;53.258;-8.814;2023-07-24T10:09:16;101297.44;;;20.35;100.00
64340;BME280;63709;53.258;-8.814;2023-07-24T10:11:45;101306.66;;;20.67;100.00
64340;BME280;63709;53.258;-8.814;2023-07-24T10:14:11;101300.81;;;21.27;100.00
64340;BME280;63709;53.258;-8.814;2023-07-24T10:16:36;101309.59;;;21.54;100.00
64340;BME280;63709;53.258;-8.814;2023-07-24T10:19:12;101300.66;;;21.84;100.00
64340;BME280;63709;53.258;-8.814;2023-07-24T10:21:37;101301.28;;;21.94;100.00
64340;BME280;63709;53.258;-8.814;2023-07-24T10:24:09;101301.81;;;22.29;100.00
64340;BME280;63709;53.258;-8.814;2023-07-24T10:26:35;101296.53;;;22.74;100.00
64340;BME280;63709;53.258;-8.814;2023-07-24T10:29:02;101304.84;;;22.95;100.00
64340;BME280;63709;53.258;-8.814;2023-07-24T10:31:35;101298.69;;;22.78;92.45
64340;BME280;63709;53.258;-8.814;2023-07-24T10:34:04;101305.06;;;22.93;100.00
64340;BME280;63709;53.258;-8.814;2023-07-24T10:36:33;101299.06;;;23.13;100.00
64340;BME280;63709;53.258;-8.814;2023-07-24T10:38:59;101304.06;;;23.54;100.00
64340;BME280;63709;53.258;-8.814;2023-07-24T10:41:37;101309.56;;;23.69;94.79
64340;BME280;63709;53.258;-8.814;2023-07-24T10:44:07;101290.41;;;23.98;87.84
64340;BME280;63709;53.258;-8.814;2023-07-24T10:46:38;101302.03;;;24.22;90.58
64340;BME280;63709;53.258;-8.814;2023-07-24T10:49:04;101299.09;;;24.23;93.26
64340;BME280;63709;53.258;-8.814;2023-07-24T10:51:29;101304.81;;;24.28;90.77
64340;BME280;63709;53.258;-8.814;2023-07-24T10:53:59;101310.94;;;24.30;87.55
64340;BME280;63709;53.258;-8.814;2023-07-24T10:56:25;101309.00;;;24.09;88.41
64340;BME280;63709;53.258;-8.814;2023-07-24T10:58:50;101313.84;;;23.63;88.02
64340;BME280;63709;53.258;-8.814;2023-07-24T11:01:17;101313.09;;;23.84;90.17
64340;BME280;63709;53.258;-8.814;2023-07-24T11:03:43;101314.34;;;23.81;87.56
64340;BME280;63709;53.258;-8.814;2023-07-24T11:06:16;101312.06;;;24.00;87.98
64340;BME280;63709;53.258;-8.814;2023-07-24T11:08:57;101313.16;;;24.05;92.17
64340;BME280;63709;53.258;-8.814;2023-07-24T11:13:54;101321.38;;;23.61;91.44
64340;BME280;63709;53.258;-8.814;2023-07-24T11:16:20;101324.38;;;23.36;91.50
64340;BME280;63709;53.258;-8.814;2023-07-24T11:18:47;101327.50;;;22.96;93.61
64340;BME280;63709;53.258;-8.814;2023-07-24T11:21:14;101331.34;;;23.01;100.00
64340;BME280;63709;53.258;-8.814;2023-07-24T11:23:51;101324.91;;;23.32;100.00
64340;BME280;63709;53.258;-8.814;2023-07-24T11:26:24;101330.72;;;23.81;97.02
64340;BME280;63709;53.258;-8.814;2023-07-24T11:28:51;101323.22;;;24.05;96.22
64340;BME280;63709;53.258;-8.814;2023-07-24T11:31:16;101326.81;;;24.42;90.90
64340;BME280;63709;53.258;-8.814;2023-07-24T11:33:45;101319.59;;;24.98;93.43
64340;BME280;63709;53.258;-8.814;2023-07-24T11:36:11;101321.97;;;25.29;87.02
64340;BME280;63709;53.258;-8.814;2023-07-24T11:38:37;101330.91;;;25.45;82.30
64340;BME280;63709;53.258;-8.814;2023-07-24T11:41:04;101327.34;;;25.51;87.09
64340;BME280;63709;53.258;-8.814;2023-07-24T11:43:30;101322.75;;;25.51;73.05
64340;BME280;63709;53.258;-8.814;2023-07-24T11:45:56;101321.28;;;25.55;72.19
64340;BME280;63709;53.258;-8.814;2023-07-24T11:48:22;101313.31;;;25.61;73.15
64340;BME280;63709;53.258;-8.814;2023-07-24T11:50:49;101322.63;;;25.66;75.39
64340;BME280;63709;53.258;-8.814;2023-07-24T11:53:29;101325.69;;;25.85;77.51
64340;BME280;63709;53.258;-8.814;2023-07-24T11:55:58;101325.16;;;26.16;81.37
64340;BME280;63709;53.258;-8.814;2023-07-24T11:58:28;101337.13;;;26.08;78.76
64340;BME280;63709;53.258;-8.814;2023-07-24T12:00:53;101328.72;;;26.16;74.25
64340;BME280;63709;53.258;-8.814;2023-07-24T12:03:23;101339.19;;;25.93;77.28
64340;BME280;63709;53.258;-8.814;2023-07-24T12:05:49;101337.13;;;25.67;79.96
64340;BME280;63709;53.258;-8.814;2023-07-24T12:08:16;101320.94;;;25.72;77.93
64340;BME280;63709;53.258;-8.814;2023-07-24T12:10:48;101345.31;;;25.67;86.88
64340;BME280;63709;53.258;-8.814;2023-07-24T12:13:14;101343.38;;;25.89;77.95
64340;BME280;63709;53.258;-8.814;2023-07-24T12:15:40;101335.41;;;25.66;79.59
64340;BME280;63709;53.258;-8.814;2023-07-24T12:18:06;101345.00;;;25.20;79.00
64340;BME280;63709;53.258;-8.814;2023-07-24T12:20:33;101343.47;;;25.11;80.01
64340;BME280;63709;53.258;-8.814;2023-07-24T12:23:01;101338.00;;;24.90;81.50
64340;BME280;63709;53.258;-8.814;2023-07-24T12:25:28;101334.56;;;24.81;82.82
64340;BME280;63709;53.258;-8.814;2023-07-24T12:27:55;101337.00;;;24.33;80.73
64340;BME280;63709;53.258;-8.814;2023-07-24T12:30:23;101339.81;;;24.03;85.06
64340;BME280;63709;53.258;-8.814;2023-07-24T12:32:49;101335.97;;;23.83;89.11
64340;BME280;63709;53.258;-8.814;2023-07-24T12:35:17;101332.97;;;23.78;91.72
64340;BME280;63709;53.258;-8.814;2023-07-24T12:37:46;101336.34;;;23.80;81.19
64340;BME280;63709;53.258;-8.814;2023-07-24T12:40:13;101337.09;;;23.88;92.57
64340;BME280;63709;53.258;-8.814;2023-07-24T12:42:38;101331.63;;;24.03;100.00